TPQ weather

Amado Nervo National Airport
Tepic, Nayarit, Mexico

Public forecast

Using degrees Celsius for public forecast. Weather courtesy of forecast.io.

Current aviation weather report (METAR) for Amado Nervo National Airport

Retrieved 2020/05/26 18:45 UTC (32 minutes ago):

MMEP 261845Z VRB03KT 12SM FEW230 30/13 A2998 RMK 8/001 HZY

Aviation forecast (TAF) for Amado Nervo National Airport

Retrieved 2020/05/26 18:07 UTC (1 hour ago):

TAF COR MMEP 261900Z 2618/2718 32006KT P6SM SCT230 BECMG 2620/2621 35012KT FM270200 00000KT P6SM SCT020 BECMG 2705/2706 3SM BR HZ BKN015 FM271000 00000KT 5SM HZ SCT015 TEMPO 2710/2714 3SM BR HZ FM271500 00000KT P6SM SKC